sensor_id;sensor_type;location;lat;lon;timestamp;pressure;altitude;pressure_sealevel;temperature;humidity
53635;BME280;39542;-34.932;138.594;2023-08-30T00:00:17;101161.24;;;17.30;59.65
53635;BME280;39542;-34.932;138.594;2023-08-30T00:00:51;101161.98;;;17.30;59.61
53635;BME280;39542;-34.932;138.594;2023-08-30T00:01:25;101159.24;;;17.31;59.68
53635;BME280;39542;-34.932;138.594;2023-08-30T00:01:59;101160.33;;;17.30;59.70
53635;BME280;39542;-34.932;138.594;2023-08-30T00:02:34;101158.62;;;17.31;59.69
53635;BME280;39542;-34.932;138.594;2023-08-30T00:03:08;101158.62;;;17.31;59.70
53635;BME280;39542;-34.932;138.594;2023-08-30T00:03:43;101159.46;;;17.31;59.61
53635;BME280;39542;-34.932;138.594;2023-08-30T00:04:17;101159.71;;;17.33;59.55
53635;BME280;39542;-34.932;138.594;2023-08-30T00:04:51;101164.65;;;17.31;59.70
53635;BME280;39542;-34.932;138.594;2023-08-30T00:05:26;101162.15;;;17.29;59.74
53635;BME280;39542;-34.932;138.594;2023-08-30T00:06:04;101165.83;;;17.30;59.65
53635;BME280;39542;-34.932;138.594;2023-08-30T00:06:40;101167.97;;;17.28;59.75
53635;BME280;39542;-34.932;138.594;2023-08-30T00:07:14;101165.11;;;17.30;59.62
53635;BME280;39542;-34.932;138.594;2023-08-30T00:07:49;101168.55;;;17.31;59.73
53635;BME280;39542;-34.932;138.594;2023-08-30T00:08:24;101168.37;;;17.32;59.60
53635;BME280;39542;-34.932;138.594;2023-08-30T00:08:58;101167.78;;;17.31;59.64
53635;BME280;39542;-34.932;138.594;2023-08-30T00:09:32;101168.27;;;17.29;59.67
53635;BME280;39542;-34.932;138.594;2023-08-30T00:10:07;101168.12;;;17.29;59.72
53635;BME280;39542;-34.932;138.594;2023-08-30T00:10:42;101163.96;;;17.29;59.67
53635;BME280;39542;-34.932;138.594;2023-08-30T00:11:16;101168.56;;;17.29;59.73
53635;BME280;39542;-34.932;138.594;2023-08-30T00:11:50;101167.78;;;17.30;59.72
53635;BME280;39542;-34.932;138.594;2023-08-30T00:12:25;101167.89;;;17.30;59.64
53635;BME280;39542;-34.932;138.594;2023-08-30T00:12:59;101164.92;;;17.28;59.80
53635;BME280;39542;-34.932;138.594;2023-08-30T00:13:34;101166.63;;;17.29;59.69
53635;BME280;39542;-34.932;138.594;2023-08-30T00:14:09;101166.57;;;17.30;59.70
53635;BME280;39542;-34.932;138.594;2023-08-30T00:14:43;101165.95;;;17.30;59.72
53635;BME280;39542;-34.932;138.594;2023-08-30T00:15:18;101168.48;;;17.29;59.66
53635;BME280;39542;-34.932;138.594;2023-08-30T00:15:52;101164.74;;;17.27;59.75
53635;BME280;39542;-34.932;138.594;2023-08-30T00:16:26;101165.42;;;17.27;59.73
53635;BME280;39542;-34.932;138.594;2023-08-30T00:17:00;101166.79;;;17.27;59.72
53635;BME280;39542;-34.932;138.594;2023-08-30T00:17:34;101168.89;;;17.29;59.72
53635;BME280;39542;-34.932;138.594;2023-08-30T00:18:09;101173.11;;;17.30;59.66
53635;BME280;39542;-34.932;138.594;2023-08-30T00:18:43;101168.92;;;17.30;59.65
53635;BME280;39542;-34.932;138.594;2023-08-30T00:19:18;101168.90;;;17.29;59.64
53635;BME280;39542;-34.932;138.594;2023-08-30T00:19:52;101174.01;;;17.29;59.58
53635;BME280;39542;-34.932;138.594;2023-08-30T00:20:27;101172.34;;;17.28;59.74
53635;BME280;39542;-34.932;138.594;2023-08-30T00:21:01;101172.05;;;17.28;59.70
53635;BME280;39542;-34.932;138.594;2023-08-30T00:21:35;101175.18;;;17.30;59.70
53635;BME280;39542;-34.932;138.594;2023-08-30T00:22:11;101173.79;;;17.31;59.63
53635;BME280;39542;-34.932;138.594;2023-08-30T00:22:45;101170.03;;;17.31;59.53
53635;BME280;39542;-34.932;138.594;2023-08-30T00:23:19;101171.68;;;17.31;59.62
53635;BME280;39542;-34.932;138.594;2023-08-30T00:23:54;101169.79;;;17.31;59.47
53635;BME280;39542;-34.932;138.594;2023-08-30T00:24:28;101172.27;;;17.30;59.64
53635;BME280;39542;-34.932;138.594;2023-08-30T00:25:03;101173.25;;;17.31;59.64
53635;BME280;39542;-34.932;138.594;2023-08-30T00:25:37;101176.12;;;17.30;59.64
53635;BME280;39542;-34.932;138.594;2023-08-30T00:26:11;101175.29;;;17.31;59.61
53635;BME280;39542;-34.932;138.594;2023-08-30T00:26:46;101172.04;;;17.30;59.56
53635;BME280;39542;-34.932;138.594;2023-08-30T00:27:20;101174.85;;;17.29;59.65
53635;BME280;39542;-34.932;138.594;2023-08-30T00:27:54;101176.66;;;17.31;59.60
53635;BME280;39542;-34.932;138.594;2023-08-30T00:28:28;101175.15;;;17.32;59.60
53635;BME280;39542;-34.932;138.594;2023-08-30T00:29:03;101174.85;;;17.31;59.60
53635;BME280;39542;-34.932;138.594;2023-08-30T00:29:37;101175.48;;;17.32;59.63
53635;BME280;39542;-34.932;138.594;2023-08-30T00:30:12;101172.73;;;17.31;59.53
53635;BME280;39542;-34.932;138.594;2023-08-30T00:30:46;101173.70;;;17.31;59.57
53635;BME280;39542;-34.932;138.594;2023-08-30T00:31:26;101173.75;;;17.32;59.60
53635;BME280;39542;-34.932;138.594;2023-08-30T00:32:01;101175.86;;;17.31;59.57
53635;BME280;39542;-34.932;138.594;2023-08-30T00:32:35;101172.35;;;17.31;59.61
53635;BME280;39542;-34.932;138.594;2023-08-30T00:33:10;101175.69;;;17.32;59.58
53635;BME280;39542;-34.932;138.594;2023-08-30T00:33:44;101178.65;;;17.32;59.57
53635;BME280;39542;-34.932;138.594;2023-08-30T00:34:18;101176.34;;;17.31;59.60
53635;BME280;39542;-34.932;138.594;2023-08-30T00:34:53;101177.25;;;17.30;59.58
53635;BME280;39542;-34.932;138.594;2023-08-30T00:35:27;101178.17;;;17.31;59.60
53635;BME280;39542;-34.932;138.594;2023-08-30T00:36:01;101177.62;;;17.31;59.64
53635;BME280;39542;-34.932;138.594;2023-08-30T00:36:37;101177.12;;;17.31;59.65
53635;BME280;39542;-34.932;138.594;2023-08-30T00:37:11;101176.99;;;17.31;59.60
53635;BME280;39542;-34.932;138.594;2023-08-30T00:37:45;101181.80;;;17.30;59.58
53635;BME280;39542;-34.932;138.594;2023-08-30T00:38:20;101180.54;;;17.31;59.62
53635;BME280;39542;-34.932;138.594;2023-08-30T00:38:54;101176.40;;;17.34;59.53
53635;BME280;39542;-34.932;138.594;2023-08-30T00:39:29;101176.00;;;17.33;59.54
53635;BME280;39542;-34.932;138.594;2023-08-30T00:40:04;101173.29;;;17.34;59.55
53635;BME280;39542;-34.932;138.594;2023-08-30T00:40:41;101176.19;;;17.34;59.53
53635;BME280;39542;-34.932;138.594;2023-08-30T00:41:15;101175.44;;;17.34;59.48
53635;BME280;39542;-34.932;138.594;2023-08-30T00:41:49;101177.09;;;17.35;59.47
53635;BME280;39542;-34.932;138.594;2023-08-30T00:42:24;101176.24;;;17.32;59.57
53635;BME280;39542;-34.932;138.594;2023-08-30T00:42:58;101178.73;;;17.32;59.51
53635;BME280;39542;-34.932;138.594;2023-08-30T00:43:33;101176.26;;;17.32;59.53
53635;BME280;39542;-34.932;138.594;2023-08-30T00:44:07;101178.58;;;17.34;59.51
53635;BME280;39542;-34.932;138.594;2023-08-30T00:44:41;101175.91;;;17.34;59.52
53635;BME280;39542;-34.932;138.594;2023-08-30T00:45:16;101175.11;;;17.33;59.51
53635;BME280;39542;-34.932;138.594;2023-08-30T00:45:50;101174.30;;;17.32;59.58
53635;BME280;39542;-34.932;138.594;2023-08-30T00:46:25;101177.62;;;17.32;59.56
53635;BME280;39542;-34.932;138.594;2023-08-30T00:46:59;101174.08;;;17.33;59.48
53635;BME280;39542;-34.932;138.594;2023-08-30T00:47:34;101178.62;;;17.34;59.47
53635;BME280;39542;-34.932;138.594;2023-08-30T00:48:09;101174.69;;;17.32;59.53
53635;BME280;39542;-34.932;138.594;2023-08-30T00:48:45;101173.81;;;17.32;59.50
53635;BME280;39542;-34.932;138.594;2023-08-30T00:49:20;101173.74;;;17.33;59.49
53635;BME280;39542;-34.932;138.594;2023-08-30T00:49:54;101173.33;;;17.34;59.51
53635;BME280;39542;-34.932;138.594;2023-08-30T00:50:29;101173.08;;;17.33;59.52
53635;BME280;39542;-34.932;138.594;2023-08-30T00:51:03;101172.74;;;17.32;59.57
53635;BME280;39542;-34.932;138.594;2023-08-30T00:51:38;101172.88;;;17.34;59.53
53635;BME280;39542;-34.932;138.594;2023-08-30T00:52:13;101174.06;;;17.35;59.49
53635;BME280;39542;-34.932;138.594;2023-08-30T00:52:47;101173.79;;;17.36;59.48
53635;BME280;39542;-34.932;138.594;2023-08-30T00:53:22;101171.92;;;17.35;59.42
53635;BME280;39542;-34.932;138.594;2023-08-30T00:53:57;101174.11;;;17.35;59.40
53635;BME280;39542;-34.932;138.594;2023-08-30T00:54:32;101176.42;;;17.35;59.48
53635;BME280;39542;-34.932;138.594;2023-08-30T00:55:07;101174.70;;;17.35;59.47
53635;BME280;39542;-34.932;138.594;2023-08-30T00:55:42;101176.81;;;17.35;59.48
53635;BME280;39542;-34.932;138.594;2023-08-30T00:56:18;101174.90;;;17.33;59.53
53635;BME280;39542;-34.932;138.594;2023-08-30T00:56:52;101174.34;;;17.32;59.53
53635;BME280;39542;-34.932;138.594;2023-08-30T00:57:28;101175.57;;;17.33;59.51
53635;BME280;39542;-34.932;138.594;2023-08-30T00:58:02;101177.24;;;17.33;59.51
53635;BME280;39542;-34.932;138.594;2023-08-30T00:58:37;101176.80;;;17.33;59.53
53635;BME280;39542;-34.932;138.594;2023-08-30T00:59:12;101178.79;;;17.34;59.48
53635;BME280;39542;-34.932;138.594;2023-08-30T00:59:47;101174.25;;;17.34;59.48
53635;BME280;39542;-34.932;138.594;2023-08-30T01:00:23;101178.50;;;17.33;59.45
53635;BME280;39542;-34.932;138.594;2023-08-30T01:00:58;101178.64;;;17.31;59.57
53635;BME280;39542;-34.932;138.594;2023-08-30T01:01:33;101177.18;;;17.31;59.59
53635;BME280;39542;-34.932;138.594;2023-08-30T01:02:07;101178.93;;;17.32;59.56
53635;BME280;39542;-34.932;138.594;2023-08-30T01:02:42;101177.90;;;17.34;59.55
53635;BME280;39542;-34.932;138.594;2023-08-30T01:03:16;101179.28;;;17.37;59.46
53635;BME280;39542;-34.932;138.594;2023-08-30T01:03:51;101177.33;;;17.38;59.44
53635;BME280;39542;-34.932;138.594;2023-08-30T01:04:25;101178.78;;;17.35;59.48
53635;BME280;39542;-34.932;138.594;2023-08-30T01:05:00;101178.52;;;17.34;59.50
53635;BME280;39542;-34.932;138.594;2023-08-30T01:05:34;101177.86;;;17.35;59.51
53635;BME280;39542;-34.932;138.594;2023-08-30T01:06:09;101180.00;;;17.34;59.45
53635;BME280;39542;-34.932;138.594;2023-08-30T01:06:43;101181.75;;;17.32;59.56
53635;BME280;39542;-34.932;138.594;2023-08-30T01:07:18;101181.03;;;17.32;59.55
53635;BME280;39542;-34.932;138.594;2023-08-30T01:07:52;101182.37;;;17.33;59.52
53635;BME280;39542;-34.932;138.594;2023-08-30T01:08:27;101182.88;;;17.32;59.57
53635;BME280;39542;-34.932;138.594;2023-08-30T01:09:02;101180.88;;;17.34;59.54
53635;BME280;39542;-34.932;138.594;2023-08-30T01:09:37;101183.28;;;17.32;59.58
53635;BME280;39542;-34.932;138.594;2023-08-30T01:10:11;101180.89;;;17.31;59.56
53635;BME280;39542;-34.932;138.594;2023-08-30T01:10:55;101182.46;;;17.33;59.53
53635;BME280;39542;-34.932;138.594;2023-08-30T01:11:39;101182.85;;;17.32;59.52
53635;BME280;39542;-34.932;138.594;2023-08-30T01:12:20;101185.16;;;17.35;59.47
53635;BME280;39542;-34.932;138.594;2023-08-30T01:13:01;101184.42;;;17.33;59.48
53635;BME280;39542;-34.932;138.594;2023-08-30T01:13:44;101183.28;;;17.35;59.48
53635;BME280;39542;-34.932;138.594;2023-08-30T01:14:25;101182.17;;;17.35;59.44
53635;BME280;39542;-34.932;138.594;2023-08-30T01:15:04;101180.04;;;17.35;59.44
53635;BME280;39542;-34.932;138.594;2023-08-30T01:15:40;101181.75;;;17.35;59.43
53635;BME280;39542;-34.932;138.594;2023-08-30T01:16:14;101181.96;;;17.33;59.51
53635;BME280;39542;-34.932;138.594;2023-08-30T01:16:49;101180.30;;;17.33;59.45
53635;BME280;39542;-34.932;138.594;2023-08-30T01:17:24;101179.34;;;17.33;59.50
53635;BME280;39542;-34.932;138.594;2023-08-30T01:17:58;101177.72;;;17.31;59.49
53635;BME280;39542;-34.932;138.594;2023-08-30T01:18:35;101178.04;;;17.31;59.49
53635;BME280;39542;-34.932;138.594;2023-08-30T01:19:23;101173.62;;;17.33;59.47
53635;BME280;39542;-34.932;138.594;2023-08-30T01:20:03;101177.16;;;17.32;59.47
53635;BME280;39542;-34.932;138.594;2023-08-30T01:20:39;101178.26;;;17.32;59.53
53635;BME280;39542;-34.932;138.594;2023-08-30T01:21:38;101180.02;;;17.33;59.48
53635;BME280;39542;-34.932;138.594;2023-08-30T01:22:25;101181.39;;;17.32;59.51
53635;BME280;39542;-34.932;138.594;2023-08-30T01:23:06;101177.57;;;17.33;59.56
53635;BME280;39542;-34.932;138.594;2023-08-30T01:23:46;101177.76;;;17.35;59.51
53635;BME280;39542;-34.932;138.594;2023-08-30T01:24:28;101176.31;;;17.35;59.51
53635;BME280;39542;-34.932;138.594;2023-08-30T01:25:15;101176.12;;;17.36;59.51
53635;BME280;39542;-34.932;138.594;2023-08-30T01:25:57;101178.54;;;17.35;59.53
53635;BME280;39542;-34.932;138.594;2023-08-30T01:26:41;101176.01;;;17.35;59.57
53635;BME280;39542;-34.932;138.594;2023-08-30T01:27:17;101176.53;;;17.34;59.57
53635;BME280;39542;-34.932;138.594;2023-08-30T01:27:53;101173.29;;;17.33;59.59
53635;BME280;39542;-34.932;138.594;2023-08-30T01:28:31;101174.02;;;17.34;59.59
53635;BME280;39542;-34.932;138.594;2023-08-30T01:29:08;101175.28;;;17.35;59.55
53635;BME280;39542;-34.932;138.594;2023-08-30T01:29:45;101175.54;;;17.34;59.58
53635;BME280;39542;-34.932;138.594;2023-08-30T01:30:20;101174.01;;;17.34;59.67
53635;BME280;39542;-34.932;138.594;2023-08-30T01:30:55;101173.28;;;17.34;59.60
53635;BME280;39542;-34.932;138.594;2023-08-30T01:31:30;101175.20;;;17.35;59.48
53635;BME280;39542;-34.932;138.594;2023-08-30T01:32:06;101174.94;;;17.34;59.63
53635;BME280;39542;-34.932;138.594;2023-08-30T01:32:42;101175.61;;;17.34;59.60
53635;BME280;39542;-34.932;138.594;2023-08-30T01:33:18;101174.97;;;17.35;59.58
53635;BME280;39542;-34.932;138.594;2023-08-30T01:33:52;101173.91;;;17.36;59.58
53635;BME280;39542;-34.932;138.594;2023-08-30T01:34:27;101175.53;;;17.37;59.55
53635;BME280;39542;-34.932;138.594;2023-08-30T01:35:02;101176.90;;;17.37;59.55
53635;BME280;39542;-34.932;138.594;2023-08-30T01:35:37;101177.10;;;17.36;59.53
53635;BME280;39542;-34.932;138.594;2023-08-30T01:36:13;101173.79;;;17.36;59.56
53635;BME280;39542;-34.932;138.594;2023-08-30T01:36:47;101176.96;;;17.36;59.61
53635;BME280;39542;-34.932;138.594;2023-08-30T01:37:22;101177.28;;;17.37;59.60
53635;BME280;39542;-34.932;138.594;2023-08-30T01:37:59;101179.89;;;17.37;59.57
53635;BME280;39542;-34.932;138.594;2023-08-30T01:38:34;101181.69;;;17.38;59.49
53635;BME280;39542;-34.932;138.594;2023-08-30T01:39:10;101180.84;;;17.37;59.58
53635;BME280;39542;-34.932;138.594;2023-08-30T01:39:44;101181.19;;;17.37;59.56
53635;BME280;39542;-34.932;138.594;2023-08-30T01:40:20;101179.21;;;17.37;59.61
53635;BME280;39542;-34.932;138.594;2023-08-30T01:40:57;101180.74;;;17.36;59.57
53635;BME280;39542;-34.932;138.594;2023-08-30T01:41:32;101183.65;;;17.36;59.61
53635;BME280;39542;-34.932;138.594;2023-08-30T01:42:07;101178.26;;;17.37;59.60
53635;BME280;39542;-34.932;138.594;2023-08-30T01:42:44;101178.39;;;17.35;59.62
53635;BME280;39542;-34.932;138.594;2023-08-30T01:43:19;101182.79;;;17.36;59.67
53635;BME280;39542;-34.932;138.594;2023-08-30T01:43:55;101184.96;;;17.37;59.58
53635;BME280;39542;-34.932;138.594;2023-08-30T01:44:30;101182.49;;;17.37;59.61
53635;BME280;39542;-34.932;138.594;2023-08-30T01:45:06;101179.76;;;17.36;59.60
53635;BME280;39542;-34.932;138.594;2023-08-30T01:45:42;101181.80;;;17.36;59.64
53635;BME280;39542;-34.932;138.594;2023-08-30T01:46:18;101188.83;;;17.36;59.68
53635;BME280;39542;-34.932;138.594;2023-08-30T01:46:53;101188.11;;;17.37;59.66
53635;BME280;39542;-34.932;138.594;2023-08-30T01:47:29;101186.68;;;17.37;59.62
53635;BME280;39542;-34.932;138.594;2023-08-30T01:48:05;101191.37;;;17.36;59.64
53635;BME280;39542;-34.932;138.594;2023-08-30T01:48:40;101185.49;;;17.36;59.67
53635;BME280;39542;-34.932;138.594;2023-08-30T01:49:15;101187.65;;;17.37;59.65
53635;BME280;39542;-34.932;138.594;2023-08-30T01:49:50;101190.79;;;17.37;59.65
53635;BME280;39542;-34.932;138.594;2023-08-30T01:50:25;101187.96;;;17.36;59.65
53635;BME280;39542;-34.932;138.594;2023-08-30T01:51:01;101189.10;;;17.37;59.64
53635;BME280;39542;-34.932;138.594;2023-08-30T01:51:36;101185.92;;;17.37;59.58
53635;BME280;39542;-34.932;138.594;2023-08-30T01:52:11;101184.24;;;17.37;59.69
53635;BME280;39542;-34.932;138.594;2023-08-30T01:52:46;101182.34;;;17.36;59.66
53635;BME280;39542;-34.932;138.594;2023-08-30T01:53:22;101183.60;;;17.36;59.57
53635;BME280;39542;-34.932;138.594;2023-08-30T01:53:57;101187.04;;;17.37;59.63
53635;BME280;39542;-34.932;138.594;2023-08-30T01:54:32;101187.61;;;17.37;59.67
53635;BME280;39542;-34.932;138.594;2023-08-30T01:55:08;101188.55;;;17.38;59.64
53635;BME280;39542;-34.932;138.594;2023-08-30T01:55:44;101185.21;;;17.37;59.66
53635;BME280;39542;-34.932;138.594;2023-08-30T01:56:18;101187.73;;;17.37;59.64
53635;BME280;39542;-34.932;138.594;2023-08-30T01:56:53;101184.36;;;17.37;59.70
53635;BME280;39542;-34.932;138.594;2023-08-30T01:57:27;101182.38;;;17.38;59.65
53635;BME280;39542;-34.932;138.594;2023-08-30T01:58:02;101186.05;;;17.39;59.63
53635;BME280;39542;-34.932;138.594;2023-08-30T01:58:37;101190.81;;;17.39;59.68
53635;BME280;39542;-34.932;138.594;2023-08-30T01:59:11;101187.16;;;17.39;59.62
53635;BME280;39542;-34.932;138.594;2023-08-30T01:59:46;101189.82;;;17.40;59.61
53635;BME280;39542;-34.932;138.594;2023-08-30T02:00:20;101188.88;;;17.39;59.65
53635;BME280;39542;-34.932;138.594;2023-08-30T02:00:55;101185.91;;;17.39;59.61
53635;BME280;39542;-34.932;138.594;2023-08-30T02:01:30;101187.08;;;17.39;59.58
53635;BME280;39542;-34.932;138.594;2023-08-30T02:02:04;101188.52;;;17.38;59.65
53635;BME280;39542;-34.932;138.594;2023-08-30T02:02:39;101188.54;;;17.38;59.65
53635;BME280;39542;-34.932;138.594;2023-08-30T02:03:14;101184.76;;;17.38;59.67
53635;BME280;39542;-34.932;138.594;2023-08-30T02:03:48;101190.08;;;17.39;59.60
53635;BME280;39542;-34.932;138.594;2023-08-30T02:04:23;101187.63;;;17.38;59.65
53635;BME280;39542;-34.932;138.594;2023-08-30T02:04:57;101185.19;;;17.38;59.64
53635;BME280;39542;-34.932;138.594;2023-08-30T02:05:32;101186.23;;;17.38;59.59
53635;BME280;39542;-34.932;138.594;2023-08-30T02:06:11;101187.73;;;17.37;59.69
53635;BME280;39542;-34.932;138.594;2023-08-30T02:06:54;101190.92;;;17.38;59.72
53635;BME280;39542;-34.932;138.594;2023-08-30T02:07:37;101189.28;;;17.38;59.60
53635;BME280;39542;-34.932;138.594;2023-08-30T02:08:17;101189.70;;;17.38;59.64
53635;BME280;39542;-34.932;138.594;2023-08-30T02:08:55;101190.75;;;17.38;59.65
53635;BME280;39542;-34.932;138.594;2023-08-30T02:09:40;101190.57;;;17.37;59.72
53635;BME280;39542;-34.932;138.594;2023-08-30T02:10:20;101188.31;;;17.36;59.70
53635;BME280;39542;-34.932;138.594;2023-08-30T02:11:01;101188.76;;;17.37;59.71
53635;BME280;39542;-34.932;138.594;2023-08-30T02:11:39;101188.07;;;17.37;59.64
53635;BME280;39542;-34.932;138.594;2023-08-30T02:12:16;101191.54;;;17.36;59.65
53635;BME280;39542;-34.932;138.594;2023-08-30T02:12:54;101191.77;;;17.35;59.68
53635;BME280;39542;-34.932;138.594;2023-08-30T02:13:30;101192.17;;;17.35;59.68
53635;BME280;39542;-34.932;138.594;2023-08-30T02:14:07;101192.18;;;17.36;59.69
53635;BME280;39542;-34.932;138.594;2023-08-30T02:14:47;101192.14;;;17.36;59.65
53635;BME280;39542;-34.932;138.594;2023-08-30T02:15:22;101191.66;;;17.36;59.65
53635;BME280;39542;-34.932;138.594;2023-08-30T02:15:58;101186.97;;;17.36;59.71
53635;BME280;39542;-34.932;138.594;2023-08-30T02:16:34;101187.79;;;17.37;59.63
53635;BME280;39542;-34.932;138.594;2023-08-30T02:17:10;101188.40;;;17.36;59.74
53635;BME280;39542;-34.932;138.594;2023-08-30T02:17:46;101187.13;;;17.36;59.72
53635;BME280;39542;-34.932;138.594;2023-08-30T02:18:20;101189.94;;;17.35;59.73
53635;BME280;39542;-34.932;138.594;2023-08-30T02:18:55;101190.31;;;17.37;59.74
53635;BME280;39542;-34.932;138.594;2023-08-30T02:19:29;101187.30;;;17.37;59.62
53635;BME280;39542;-34.932;138.594;2023-08-30T02:20:05;101191.79;;;17.37;59.69
53635;BME280;39542;-34.932;138.594;2023-08-30T02:20:40;101187.90;;;17.38;59.60
53635;BME280;39542;-34.932;138.594;2023-08-30T02:21:15;101190.89;;;17.37;59.75
53635;BME280;39542;-34.932;138.594;2023-08-30T02:21:49;101187.00;;;17.38;59.68
53635;BME280;39542;-34.932;138.594;2023-08-30T02:22:24;101185.59;;;17.37;59.70
53635;BME280;39542;-34.932;138.594;2023-08-30T02:23:00;101184.90;;;17.38;59.67
53635;BME280;39542;-34.932;138.594;2023-08-30T02:23:34;101185.75;;;17.37;59.65
53635;BME280;39542;-34.932;138.594;2023-08-30T02:24:09;101183.90;;;17.36;59.69
53635;BME280;39542;-34.932;138.594;2023-08-30T02:24:44;101184.89;;;17.36;59.74
53635;BME280;39542;-34.932;138.594;2023-08-30T02:25:18;101186.69;;;17.37;59.78
53635;BME280;39542;-34.932;138.594;2023-08-30T02:25:53;101184.58;;;17.37;59.76
53635;BME280;39542;-34.932;138.594;2023-08-30T02:26:28;101180.08;;;17.37;59.73
53635;BME280;39542;-34.932;138.594;2023-08-30T02:27:02;101180.67;;;17.39;59.65
53635;BME280;39542;-34.932;138.594;2023-08-30T02:27:37;101179.20;;;17.41;59.62
53635;BME280;39542;-34.932;138.594;2023-08-30T02:28:11;101180.86;;;17.42;59.62
53635;BME280;39542;-34.932;138.594;2023-08-30T02:28:46;101180.70;;;17.42;59.68
53635;BME280;39542;-34.932;138.594;2023-08-30T02:29:20;101177.07;;;17.43;59.62
53635;BME280;39542;-34.932;138.594;2023-08-30T02:29:55;101178.83;;;17.44;59.52
53635;BME280;39542;-34.932;138.594;2023-08-30T02:30:29;101180.74;;;17.43;59.57
53635;BME280;39542;-34.932;138.594;2023-08-30T02:31:03;101180.36;;;17.43;59.64
53635;BME280;39542;-34.932;138.594;2023-08-30T02:31:37;101184.25;;;17.43;59.58
53635;BME280;39542;-34.932;138.594;2023-08-30T02:32:11;101184.57;;;17.42;59.56
53635;BME280;39542;-34.932;138.594;2023-08-30T02:32:46;101182.75;;;17.41;59.65
53635;BME280;39542;-34.932;138.594;2023-08-30T02:33:20;101182.33;;;17.42;59.56
53635;BME280;39542;-34.932;138.594;2023-08-30T02:33:54;101182.22;;;17.41;59.66
53635;BME280;39542;-34.932;138.594;2023-08-30T02:34:28;101182.21;;;17.41;59.60
53635;BME280;39542;-34.932;138.594;2023-08-30T02:35:04;101178.86;;;17.40;59.66
53635;BME280;39542;-34.932;138.594;2023-08-30T02:35:38;101180.32;;;17.41;59.58
53635;BME280;39542;-34.932;138.594;2023-08-30T02:36:12;101177.45;;;17.40;59.59
53635;BME280;39542;-34.932;138.594;2023-08-30T02:36:46;101178.97;;;17.39;59.70
53635;BME280;39542;-34.932;138.594;2023-08-30T02:37:21;101177.77;;;17.39;59.64
53635;BME280;39542;-34.932;138.594;2023-08-30T02:37:55;101176.23;;;17.38;59.70
53635;BME280;39542;-34.932;138.594;2023-08-30T02:38:30;101175.75;;;17.39;59.63
53635;BME280;39542;-34.932;138.594;2023-08-30T02:39:05;101175.53;;;17.39;59.61
53635;BME280;39542;-34.932;138.594;2023-08-30T02:39:39;101175.22;;;17.40;59.66
53635;BME280;39542;-34.932;138.594;2023-08-30T02:40:14;101171.24;;;17.40;59.66
53635;BME280;39542;-34.932;138.594;2023-08-30T02:40:48;101171.06;;;17.41;59.64
53635;BME280;39542;-34.932;138.594;2023-08-30T02:41:22;101169.08;;;17.42;59.69
53635;BME280;39542;-34.932;138.594;2023-08-30T02:41:57;101168.56;;;17.42;59.60
53635;BME280;39542;-34.932;138.594;2023-08-30T02:42:31;101170.12;;;17.40;59.66
53635;BME280;39542;-34.932;138.594;2023-08-30T02:43:06;101167.70;;;17.40;59.69
53635;BME280;39542;-34.932;138.594;2023-08-30T02:43:40;101174.98;;;17.40;59.70
53635;BME280;39542;-34.932;138.594;2023-08-30T02:44:14;101171.55;;;17.42;59.59
53635;BME280;39542;-34.932;138.594;2023-08-30T02:44:48;101172.20;;;17.42;59.61
53635;BME280;39542;-34.932;138.594;2023-08-30T02:45:22;101170.83;;;17.43;59.58
53635;BME280;39542;-34.932;138.594;2023-08-30T02:45:57;101170.00;;;17.41;59.65
53635;BME280;39542;-34.932;138.594;2023-08-30T02:46:31;101171.00;;;17.40;59.68
53635;BME280;39542;-34.932;138.594;2023-08-30T02:47:06;101164.07;;;17.40;59.62
53635;BME280;39542;-34.932;138.594;2023-08-30T02:47:40;101171.50;;;17.40;59.69
53635;BME280;39542;-34.932;138.594;2023-08-30T02:48:14;101168.23;;;17.41;59.64
53635;BME280;39542;-34.932;138.594;2023-08-30T02:48:49;101166.96;;;17.39;59.73
53635;BME280;39542;-34.932;138.594;2023-08-30T02:49:23;101164.54;;;17.39;59.70
53635;BME280;39542;-34.932;138.594;2023-08-30T02:49:57;101167.48;;;17.40;59.65
53635;BME280;39542;-34.932;138.594;2023-08-30T02:50:31;101165.47;;;17.41;59.66
53635;BME280;39542;-34.932;138.594;2023-08-30T02:51:06;101162.89;;;17.40;59.63
53635;BME280;39542;-34.932;138.594;2023-08-30T02:51:40;101160.17;;;17.40;59.62
53635;BME280;39542;-34.932;138.594;2023-08-30T02:52:14;101164.21;;;17.39;59.69
53635;BME280;39542;-34.932;138.594;2023-08-30T02:52:50;101170.06;;;17.40;59.65
53635;BME280;39542;-34.932;138.594;2023-08-30T02:53:24;101169.13;;;17.41;59.60
53635;BME280;39542;-34.932;138.594;2023-08-30T02:53:59;101168.42;;;17.40;59.67
53635;BME280;39542;-34.932;138.594;2023-08-30T02:54:33;101166.17;;;17.41;59.66
53635;BME280;39542;-34.932;138.594;2023-08-30T02:55:08;101167.42;;;17.42;59.52
53635;BME280;39542;-34.932;138.594;2023-08-30T02:55:42;101170.64;;;17.41;59.61
53635;BME280;39542;-34.932;138.594;2023-08-30T02:56:16;101168.94;;;17.40;59.66
53635;BME280;39542;-34.932;138.594;2023-08-30T02:56:51;101169.41;;;17.40;59.70
53635;BME280;39542;-34.932;138.594;2023-08-30T02:57:26;101168.16;;;17.42;59.62
53635;BME280;39542;-34.932;138.594;2023-08-30T02:58:00;101167.62;;;17.41;59.65
53635;BME280;39542;-34.932;138.594;2023-08-30T02:58:34;101174.47;;;17.41;59.64